sensor_id;sensor_type;location;lat;lon;timestamp;P1;durP1;ratioP1;P2;durP2;ratioP2
46561;SDS011;32289;42.688;23.330;2023-03-26T00:00:23;0.20;;;0.20;;
46561;SDS011;32289;42.688;23.330;2023-03-26T00:04:05;0.77;;;0.45;;
46561;SDS011;32289;42.688;23.330;2023-03-26T00:07:46;0.20;;;0.20;;
46561;SDS011;32289;42.688;23.330;2023-03-26T00:11:28;0.30;;;0.30;;
46561;SDS011;32289;42.688;23.330;2023-03-26T00:15:09;0.30;;;0.30;;
46561;SDS011;32289;42.688;23.330;2023-03-26T00:18:50;0.73;;;0.43;;
46561;SDS011;32289;42.688;23.330;2023-03-26T00:22:30;0.98;;;0.32;;
46561;SDS011;32289;42.688;23.330;2023-03-26T00:26:11;0.70;;;0.40;;
46561;SDS011;32289;42.688;23.330;2023-03-26T00:29:52;0.30;;;0.30;;
46561;SDS011;32289;42.688;23.330;2023-03-26T00:33:35;2.95;;;0.30;;
46561;SDS011;32289;42.688;23.330;2023-03-26T00:37:19;0.35;;;0.30;;
46561;SDS011;32289;42.688;23.330;2023-03-26T00:41:06;1.27;;;0.38;;
46561;SDS011;32289;42.688;23.330;2023-03-26T00:44:56;0.55;;;0.32;;
46561;SDS011;32289;42.688;23.330;2023-03-26T00:48:37;0.80;;;0.45;;
46561;SDS011;32289;42.688;23.330;2023-03-26T00:52:18;0.38;;;0.30;;
46561;SDS011;32289;42.688;23.330;2023-03-26T00:56:02;0.32;;;0.28;;
46561;SDS011;32289;42.688;23.330;2023-03-26T00:59:44;0.40;;;0.30;;
46561;SDS011;32289;42.688;23.330;2023-03-26T01:03:25;0.60;;;0.30;;
46561;SDS011;32289;42.688;23.330;2023-03-26T01:07:14;0.35;;;0.25;;
46561;SDS011;32289;42.688;23.330;2023-03-26T01:11:11;0.47;;;0.30;;
46561;SDS011;32289;42.688;23.330;2023-03-26T01:15:21;0.22;;;0.22;;
46561;SDS011;32289;42.688;23.330;2023-03-26T01:19:06;0.82;;;0.43;;
46561;SDS011;32289;42.688;23.330;2023-03-26T01:22:53;0.25;;;0.25;;
46561;SDS011;32289;42.688;23.330;2023-03-26T01:38:42;0.50;;;0.32;;
46561;SDS011;32289;42.688;23.330;2023-03-26T01:42:35;1.15;;;0.50;;
46561;SDS011;32289;42.688;23.330;2023-03-26T01:46:31;1.73;;;0.63;;
46561;SDS011;32289;42.688;23.330;2023-03-26T01:50:15;0.38;;;0.30;;
46561;SDS011;32289;42.688;23.330;2023-03-26T01:53:55;1.38;;;0.55;;
46561;SDS011;32289;42.688;23.330;2023-03-26T01:58:01;1.73;;;0.93;;
46561;SDS011;32289;42.688;23.330;2023-03-26T02:06:04;0.68;;;0.47;;
46561;SDS011;32289;42.688;23.330;2023-03-26T02:09:51;0.68;;;0.32;;
46561;SDS011;32289;42.688;23.330;2023-03-26T02:13:37;1.88;;;0.60;;
46561;SDS011;32289;42.688;23.330;2023-03-26T02:17:19;0.50;;;0.40;;
46561;SDS011;32289;42.688;23.330;2023-03-26T02:24:49;1.00;;;0.50;;
46561;SDS011;32289;42.688;23.330;2023-03-26T02:28:30;0.98;;;0.40;;
46561;SDS011;32289;42.688;23.330;2023-03-26T02:32:10;0.65;;;0.45;;
46561;SDS011;32289;42.688;23.330;2023-03-26T02:35:52;1.00;;;0.50;;
46561;SDS011;32289;42.688;23.330;2023-03-26T02:39:33;1.52;;;0.80;;
46561;SDS011;32289;42.688;23.330;2023-03-26T02:43:14;1.25;;;0.65;;
46561;SDS011;32289;42.688;23.330;2023-03-26T02:46:54;3.33;;;0.40;;
46561;SDS011;32289;42.688;23.330;2023-03-26T02:50:35;2.05;;;0.40;;
46561;SDS011;32289;42.688;23.330;2023-03-26T02:54:16;2.45;;;0.88;;
46561;SDS011;32289;42.688;23.330;2023-03-26T02:57:57;0.80;;;0.50;;
46561;SDS011;32289;42.688;23.330;2023-03-26T03:01:38;1.05;;;0.63;;
46561;SDS011;32289;42.688;23.330;2023-03-26T03:05:22;0.70;;;0.43;;
46561;SDS011;32289;42.688;23.330;2023-03-26T03:09:05;0.68;;;0.50;;
46561;SDS011;32289;42.688;23.330;2023-03-26T03:12:49;1.17;;;0.63;;
46561;SDS011;32289;42.688;23.330;2023-03-26T03:16:31;0.95;;;0.50;;
46561;SDS011;32289;42.688;23.330;2023-03-26T03:20:11;1.45;;;0.75;;
46561;SDS011;32289;42.688;23.330;2023-03-26T03:23:55;1.50;;;0.90;;
46561;SDS011;32289;42.688;23.330;2023-03-26T03:27:36;1.88;;;0.80;;
46561;SDS011;32289;42.688;23.330;2023-03-26T03:31:18;2.42;;;1.23;;
46561;SDS011;32289;42.688;23.330;2023-03-26T03:34:59;1.25;;;0.65;;
46561;SDS011;32289;42.688;23.330;2023-03-26T03:38:40;2.35;;;1.10;;
46561;SDS011;32289;42.688;23.330;2023-03-26T03:42:21;1.90;;;0.90;;
46561;SDS011;32289;42.688;23.330;2023-03-26T03:46:01;1.02;;;0.57;;
46561;SDS011;32289;42.688;23.330;2023-03-26T03:49:42;2.97;;;1.23;;
46561;SDS011;32289;42.688;23.330;2023-03-26T03:53:24;1.13;;;0.73;;
46561;SDS011;32289;42.688;23.330;2023-03-26T03:57:05;1.23;;;0.70;;
46561;SDS011;32289;42.688;23.330;2023-03-26T04:00:46;5.85;;;1.25;;
46561;SDS011;32289;42.688;23.330;2023-03-26T04:04:30;1.58;;;0.88;;
46561;SDS011;32289;42.688;23.330;2023-03-26T04:08:11;2.03;;;0.95;;
46561;SDS011;32289;42.688;23.330;2023-03-26T04:11:52;4.28;;;1.00;;
46561;SDS011;32289;42.688;23.330;2023-03-26T04:15:33;1.13;;;0.73;;
46561;SDS011;32289;42.688;23.330;2023-03-26T04:19:14;3.28;;;1.40;;
46561;SDS011;32289;42.688;23.330;2023-03-26T04:22:55;2.28;;;1.10;;
46561;SDS011;32289;42.688;23.330;2023-03-26T04:26:37;2.47;;;1.50;;
46561;SDS011;32289;42.688;23.330;2023-03-26T04:30:17;4.80;;;1.05;;
46561;SDS011;32289;42.688;23.330;2023-03-26T04:34:04;3.47;;;1.50;;
46561;SDS011;32289;42.688;23.330;2023-03-26T04:37:52;2.33;;;1.40;;
46561;SDS011;32289;42.688;23.330;2023-03-26T04:41:33;2.92;;;1.90;;
46561;SDS011;32289;42.688;23.330;2023-03-26T04:45:15;2.47;;;1.30;;
46561;SDS011;32289;42.688;23.330;2023-03-26T04:49:01;2.15;;;1.50;;
46561;SDS011;32289;42.688;23.330;2023-03-26T04:52:42;5.30;;;1.77;;
46561;SDS011;32289;42.688;23.330;2023-03-26T04:56:29;4.10;;;2.17;;
46561;SDS011;32289;42.688;23.330;2023-03-26T05:00:27;3.70;;;1.80;;
46561;SDS011;32289;42.688;23.330;2023-03-26T05:04:08;3.60;;;1.55;;
46561;SDS011;32289;42.688;23.330;2023-03-26T05:07:48;2.80;;;1.60;;
46561;SDS011;32289;42.688;23.330;2023-03-26T05:11:29;3.05;;;1.77;;
46561;SDS011;32289;42.688;23.330;2023-03-26T05:15:10;4.80;;;2.15;;
46561;SDS011;32289;42.688;23.330;2023-03-26T05:18:53;3.92;;;2.53;;
46561;SDS011;32289;42.688;23.330;2023-03-26T05:22:33;4.53;;;2.10;;
46561;SDS011;32289;42.688;23.330;2023-03-26T05:26:14;5.80;;;2.30;;
46561;SDS011;32289;42.688;23.330;2023-03-26T05:29:59;3.88;;;2.15;;
46561;SDS011;32289;42.688;23.330;2023-03-26T05:33:40;3.53;;;1.92;;
46561;SDS011;32289;42.688;23.330;2023-03-26T05:37:21;3.55;;;2.13;;
46561;SDS011;32289;42.688;23.330;2023-03-26T05:41:04;4.10;;;2.45;;
46561;SDS011;32289;42.688;23.330;2023-03-26T05:44:47;3.55;;;2.22;;
46561;SDS011;32289;42.688;23.330;2023-03-26T05:48:30;4.90;;;2.65;;
46561;SDS011;32289;42.688;23.330;2023-03-26T05:52:13;6.00;;;2.65;;
46561;SDS011;32289;42.688;23.330;2023-03-26T05:55:58;5.07;;;2.60;;
46561;SDS011;32289;42.688;23.330;2023-03-26T05:59:38;4.45;;;2.53;;
46561;SDS011;32289;42.688;23.330;2023-03-26T06:03:20;5.32;;;2.72;;
46561;SDS011;32289;42.688;23.330;2023-03-26T06:07:01;4.65;;;2.63;;
46561;SDS011;32289;42.688;23.330;2023-03-26T06:10:42;5.57;;;3.22;;
46561;SDS011;32289;42.688;23.330;2023-03-26T06:14:23;5.30;;;2.53;;
46561;SDS011;32289;42.688;23.330;2023-03-26T06:18:04;4.88;;;2.53;;
46561;SDS011;32289;42.688;23.330;2023-03-26T06:21:45;10.25;;;2.92;;
46561;SDS011;32289;42.688;23.330;2023-03-26T06:25:26;5.20;;;2.63;;
46561;SDS011;32289;42.688;23.330;2023-03-26T06:29:07;4.25;;;2.22;;
46561;SDS011;32289;42.688;23.330;2023-03-26T06:32:47;3.80;;;2.50;;
46561;SDS011;32289;42.688;23.330;2023-03-26T06:36:28;4.18;;;2.65;;
46561;SDS011;32289;42.688;23.330;2023-03-26T06:40:09;3.40;;;2.10;;
46561;SDS011;32289;42.688;23.330;2023-03-26T06:43:50;3.38;;;2.05;;
46561;SDS011;32289;42.688;23.330;2023-03-26T06:47:31;4.00;;;2.58;;
46561;SDS011;32289;42.688;23.330;2023-03-26T06:51:12;4.53;;;2.70;;
46561;SDS011;32289;42.688;23.330;2023-03-26T06:54:53;4.85;;;2.35;;
46561;SDS011;32289;42.688;23.330;2023-03-26T06:58:33;4.50;;;2.58;;
46561;SDS011;32289;42.688;23.330;2023-03-26T07:02:14;2.78;;;2.00;;
46561;SDS011;32289;42.688;23.330;2023-03-26T07:05:55;4.00;;;2.40;;
46561;SDS011;32289;42.688;23.330;2023-03-26T07:09:36;3.42;;;2.08;;
46561;SDS011;32289;42.688;23.330;2023-03-26T07:13:16;3.83;;;2.28;;
46561;SDS011;32289;42.688;23.330;2023-03-26T07:16:57;2.88;;;2.05;;
46561;SDS011;32289;42.688;23.330;2023-03-26T07:20:38;2.58;;;1.80;;
46561;SDS011;32289;42.688;23.330;2023-03-26T07:24:21;3.80;;;2.30;;
46561;SDS011;32289;42.688;23.330;2023-03-26T07:36:04;3.63;;;2.30;;
46561;SDS011;32289;42.688;23.330;2023-03-26T07:47:48;4.80;;;1.85;;
46561;SDS011;32289;42.688;23.330;2023-03-26T07:51:32;2.85;;;2.00;;
46561;SDS011;32289;42.688;23.330;2023-03-26T07:55:14;3.92;;;2.55;;
46561;SDS011;32289;42.688;23.330;2023-03-26T08:07:04;3.17;;;1.77;;
46561;SDS011;32289;42.688;23.330;2023-03-26T08:31:50;6.78;;;2.13;;
46561;SDS011;32289;42.688;23.330;2023-03-26T08:35:31;4.78;;;1.92;;
46561;SDS011;32289;42.688;23.330;2023-03-26T08:39:14;3.15;;;1.95;;
46561;SDS011;32289;42.688;23.330;2023-03-26T09:03:01;6.72;;;1.73;;
46561;SDS011;32289;42.688;23.330;2023-03-26T09:07:08;2.17;;;1.43;;
46561;SDS011;32289;42.688;23.330;2023-03-26T09:11:52;4.03;;;1.85;;
46561;SDS011;32289;42.688;23.330;2023-03-26T09:19:32;3.58;;;2.10;;
46561;SDS011;32289;42.688;23.330;2023-03-26T09:52:13;2.25;;;0.90;;
46561;SDS011;32289;42.688;23.330;2023-03-26T10:12:18;4.95;;;3.10;;
46561;SDS011;32289;42.688;23.330;2023-03-26T10:44:08;4.13;;;1.42;;
46561;SDS011;32289;42.688;23.330;2023-03-26T10:48:23;1.25;;;0.73;;
46561;SDS011;32289;42.688;23.330;2023-03-26T10:52:14;3.20;;;2.00;;
46561;SDS011;32289;42.688;23.330;2023-03-26T10:56:26;4.32;;;2.13;;
46561;SDS011;32289;42.688;23.330;2023-03-26T11:00:25;1.83;;;0.63;;
46561;SDS011;32289;42.688;23.330;2023-03-26T11:08:09;2.08;;;0.73;;
46561;SDS011;32289;42.688;23.330;2023-03-26T11:16:03;2.08;;;1.10;;
46561;SDS011;32289;42.688;23.330;2023-03-26T11:35:40;3.38;;;1.95;;
46561;SDS011;32289;42.688;23.330;2023-03-26T11:39:25;4.22;;;2.65;;
46561;SDS011;32289;42.688;23.330;2023-03-26T11:43:09;6.22;;;4.60;;
46561;SDS011;32289;42.688;23.330;2023-03-26T11:46:54;2.55;;;1.27;;
46561;SDS011;32289;42.688;23.330;2023-03-26T11:50:41;3.17;;;1.15;;
46561;SDS011;32289;42.688;23.330;2023-03-26T11:54:27;5.53;;;2.00;;
46561;SDS011;32289;42.688;23.330;2023-03-26T11:58:16;2.75;;;1.63;;
46561;SDS011;32289;42.688;23.330;2023-03-26T12:05:56;3.78;;;2.15;;
46561;SDS011;32289;42.688;23.330;2023-03-26T12:09:52;0.93;;;0.57;;
46561;SDS011;32289;42.688;23.330;2023-03-26T12:13:36;2.50;;;1.25;;
46561;SDS011;32289;42.688;23.330;2023-03-26T12:17:34;2.38;;;1.20;;
46561;SDS011;32289;42.688;23.330;2023-03-26T12:21:17;2.67;;;1.27;;
46561;SDS011;32289;42.688;23.330;2023-03-26T12:29:04;2.17;;;1.00;;
46561;SDS011;32289;42.688;23.330;2023-03-26T12:32:57;3.55;;;1.35;;
46561;SDS011;32289;42.688;23.330;2023-03-26T12:36:46;2.60;;;1.50;;
46561;SDS011;32289;42.688;23.330;2023-03-26T12:40:30;2.42;;;0.88;;
46561;SDS011;32289;42.688;23.330;2023-03-26T12:44:22;2.42;;;0.90;;
46561;SDS011;32289;42.688;23.330;2023-03-26T12:48:11;3.30;;;1.30;;
46561;SDS011;32289;42.688;23.330;2023-03-26T12:56:42;2.00;;;0.60;;
46561;SDS011;32289;42.688;23.330;2023-03-26T13:04:22;2.92;;;0.75;;
46561;SDS011;32289;42.688;23.330;2023-03-26T13:20:00;2.58;;;1.13;;
46561;SDS011;32289;42.688;23.330;2023-03-26T13:27:37;5.15;;;2.63;;
46561;SDS011;32289;42.688;23.330;2023-03-26T13:31:31;1.88;;;0.77;;
46561;SDS011;32289;42.688;23.330;2023-03-26T13:43:50;2.70;;;0.90;;
46561;SDS011;32289;42.688;23.330;2023-03-26T13:47:53;2.33;;;0.80;;
46561;SDS011;32289;42.688;23.330;2023-03-26T13:51:38;2.80;;;0.50;;
46561;SDS011;32289;42.688;23.330;2023-03-26T13:55:41;1.33;;;0.80;;
46561;SDS011;32289;42.688;23.330;2023-03-26T13:59:30;2.47;;;0.63;;
46561;SDS011;32289;42.688;23.330;2023-03-26T14:07:47;2.92;;;0.82;;
46561;SDS011;32289;42.688;23.330;2023-03-26T14:15:45;2.55;;;1.63;;
46561;SDS011;32289;42.688;23.330;2023-03-26T14:35:19;1.48;;;0.50;;
46561;SDS011;32289;42.688;23.330;2023-03-26T14:39:20;0.40;;;0.28;;
46561;SDS011;32289;42.688;23.330;2023-03-26T14:47:25;2.15;;;1.00;;
46561;SDS011;32289;42.688;23.330;2023-03-26T14:51:25;2.53;;;0.80;;
46561;SDS011;32289;42.688;23.330;2023-03-26T14:59:16;1.58;;;0.55;;
46561;SDS011;32289;42.688;23.330;2023-03-26T15:24:16;1.10;;;0.50;;
46561;SDS011;32289;42.688;23.330;2023-03-26T15:32:03;0.65;;;0.40;;
46561;SDS011;32289;42.688;23.330;2023-03-26T15:40:20;6.72;;;0.65;;
46561;SDS011;32289;42.688;23.330;2023-03-26T15:44:10;1.20;;;0.65;;
46561;SDS011;32289;42.688;23.330;2023-03-26T15:48:06;2.20;;;1.27;;
46561;SDS011;32289;42.688;23.330;2023-03-26T15:52:18;2.90;;;0.70;;
46561;SDS011;32289;42.688;23.330;2023-03-26T16:08:09;1.60;;;0.73;;
46561;SDS011;32289;42.688;23.330;2023-03-26T16:15:33;2.17;;;0.90;;
46561;SDS011;32289;42.688;23.330;2023-03-26T16:23:01;1.58;;;0.90;;
46561;SDS011;32289;42.688;23.330;2023-03-26T16:31:32;3.83;;;1.10;;
46561;SDS011;32289;42.688;23.330;2023-03-26T16:34:51;3.22;;;1.20;;
46561;SDS011;32289;42.688;23.330;2023-03-26T16:38:46;2.28;;;1.00;;
46561;SDS011;32289;42.688;23.330;2023-03-26T16:42:38;2.78;;;1.30;;
46561;SDS011;32289;42.688;23.330;2023-03-26T16:46:53;2.60;;;1.13;;
46561;SDS011;32289;42.688;23.330;2023-03-26T17:03:03;4.75;;;1.33;;
46561;SDS011;32289;42.688;23.330;2023-03-26T17:11:13;4.68;;;1.58;;
46561;SDS011;32289;42.688;23.330;2023-03-26T17:19:25;9.80;;;3.22;;
46561;SDS011;32289;42.688;23.330;2023-03-26T17:23:22;8.52;;;2.95;;
46561;SDS011;32289;42.688;23.330;2023-03-26T17:27:20;10.18;;;3.63;;
46561;SDS011;32289;42.688;23.330;2023-03-26T17:35:02;7.30;;;2.17;;
46561;SDS011;32289;42.688;23.330;2023-03-26T17:42:30;6.65;;;2.38;;
46561;SDS011;32289;42.688;23.330;2023-03-26T17:53:52;10.25;;;2.63;;
46561;SDS011;32289;42.688;23.330;2023-03-26T17:57:43;4.60;;;2.20;;
46561;SDS011;32289;42.688;23.330;2023-03-26T18:01:33;9.88;;;2.58;;
46561;SDS011;32289;42.688;23.330;2023-03-26T18:05:16;7.10;;;3.50;;
46561;SDS011;32289;42.688;23.330;2023-03-26T18:16:50;5.65;;;2.33;;
46561;SDS011;32289;42.688;23.330;2023-03-26T18:20:32;17.75;;;2.30;;
46561;SDS011;32289;42.688;23.330;2023-03-26T18:24:21;4.38;;;2.03;;
46561;SDS011;32289;42.688;23.330;2023-03-26T18:28:08;5.00;;;1.95;;
46561;SDS011;32289;42.688;23.330;2023-03-26T18:32:14;8.55;;;3.28;;
46561;SDS011;32289;42.688;23.330;2023-03-26T18:36:01;7.88;;;2.20;;
46561;SDS011;32289;42.688;23.330;2023-03-26T18:39:59;9.32;;;2.67;;
46561;SDS011;32289;42.688;23.330;2023-03-26T18:44:14;3.47;;;1.77;;
46561;SDS011;32289;42.688;23.330;2023-03-26T18:47:57;5.05;;;1.92;;
46561;SDS011;32289;42.688;23.330;2023-03-26T18:51:40;7.70;;;2.25;;
46561;SDS011;32289;42.688;23.330;2023-03-26T18:55:25;10.45;;;2.38;;
46561;SDS011;32289;42.688;23.330;2023-03-26T18:59:24;4.90;;;2.30;;
46561;SDS011;32289;42.688;23.330;2023-03-26T19:03:08;7.47;;;2.70;;
46561;SDS011;32289;42.688;23.330;2023-03-26T19:06:51;6.45;;;2.30;;
46561;SDS011;32289;42.688;23.330;2023-03-26T19:10:33;3.08;;;1.58;;
46561;SDS011;32289;42.688;23.330;2023-03-26T19:14:17;5.07;;;1.73;;
46561;SDS011;32289;42.688;23.330;2023-03-26T19:17:59;8.98;;;2.17;;
46561;SDS011;32289;42.688;23.330;2023-03-26T19:21:53;7.35;;;2.75;;
46561;SDS011;32289;42.688;23.330;2023-03-26T19:25:54;2.80;;;1.77;;
46561;SDS011;32289;42.688;23.330;2023-03-26T19:29:36;6.88;;;2.40;;
46561;SDS011;32289;42.688;23.330;2023-03-26T19:33:18;4.82;;;2.17;;
46561;SDS011;32289;42.688;23.330;2023-03-26T19:37:15;4.88;;;2.22;;
46561;SDS011;32289;42.688;23.330;2023-03-26T19:40:58;5.80;;;2.63;;
46561;SDS011;32289;42.688;23.330;2023-03-26T19:44:39;5.05;;;2.75;;
46561;SDS011;32289;42.688;23.330;2023-03-26T19:48:21;4.30;;;1.80;;
46561;SDS011;32289;42.688;23.330;2023-03-26T19:52:08;6.88;;;2.03;;
46561;SDS011;32289;42.688;23.330;2023-03-26T19:56:18;9.82;;;2.92;;
46561;SDS011;32289;42.688;23.330;2023-03-26T19:59:59;7.38;;;2.28;;
46561;SDS011;32289;42.688;23.330;2023-03-26T20:03:41;6.30;;;2.95;;
46561;SDS011;32289;42.688;23.330;2023-03-26T20:07:23;6.18;;;1.75;;
46561;SDS011;32289;42.688;23.330;2023-03-26T20:11:11;6.22;;;1.88;;
46561;SDS011;32289;42.688;23.330;2023-03-26T20:15:16;4.88;;;2.22;;
46561;SDS011;32289;42.688;23.330;2023-03-26T20:19:01;6.68;;;2.33;;
46561;SDS011;32289;42.688;23.330;2023-03-26T20:22:41;5.50;;;2.25;;
46561;SDS011;32289;42.688;23.330;2023-03-26T20:26:25;8.73;;;2.17;;
46561;SDS011;32289;42.688;23.330;2023-03-26T20:30:06;5.50;;;2.28;;
46561;SDS011;32289;42.688;23.330;2023-03-26T20:33:48;5.07;;;1.70;;
46561;SDS011;32289;42.688;23.330;2023-03-26T20:37:36;4.88;;;1.80;;
46561;SDS011;32289;42.688;23.330;2023-03-26T20:41:18;4.93;;;2.08;;
46561;SDS011;32289;42.688;23.330;2023-03-26T20:45:02;4.78;;;2.63;;
46561;SDS011;32289;42.688;23.330;2023-03-26T20:48:53;7.03;;;2.63;;
46561;SDS011;32289;42.688;23.330;2023-03-26T20:52:35;5.72;;;2.40;;
46561;SDS011;32289;42.688;23.330;2023-03-26T20:56:17;4.00;;;2.20;;
46561;SDS011;32289;42.688;23.330;2023-03-26T20:59:59;5.10;;;2.42;;
46561;SDS011;32289;42.688;23.330;2023-03-26T21:03:42;6.50;;;2.90;;
46561;SDS011;32289;42.688;23.330;2023-03-26T21:07:23;6.40;;;2.22;;
46561;SDS011;32289;42.688;23.330;2023-03-26T21:11:04;6.18;;;2.40;;
46561;SDS011;32289;42.688;23.330;2023-03-26T21:14:58;4.88;;;2.33;;
46561;SDS011;32289;42.688;23.330;2023-03-26T21:18:40;10.68;;;3.33;;
46561;SDS011;32289;42.688;23.330;2023-03-26T21:26:52;8.82;;;3.50;;
46561;SDS011;32289;42.688;23.330;2023-03-26T21:30:31;9.07;;;4.15;;
46561;SDS011;32289;42.688;23.330;2023-03-26T21:34:13;10.10;;;3.40;;
46561;SDS011;32289;42.688;23.330;2023-03-26T21:38:05;7.57;;;2.95;;
46561;SDS011;32289;42.688;23.330;2023-03-26T21:41:49;14.23;;;4.45;;
46561;SDS011;32289;42.688;23.330;2023-03-26T21:45:35;7.25;;;3.40;;
46561;SDS011;32289;42.688;23.330;2023-03-26T21:49:16;7.90;;;3.42;;
46561;SDS011;32289;42.688;23.330;2023-03-26T21:57:05;5.95;;;2.67;;
46561;SDS011;32289;42.688;23.330;2023-03-26T22:05:52;7.75;;;2.95;;
46561;SDS011;32289;42.688;23.330;2023-03-26T22:10:05;6.28;;;2.63;;
46561;SDS011;32289;42.688;23.330;2023-03-26T22:13:46;9.00;;;2.78;;
46561;SDS011;32289;42.688;23.330;2023-03-26T22:17:27;8.23;;;3.45;;
46561;SDS011;32289;42.688;23.330;2023-03-26T22:21:07;6.75;;;2.92;;
46561;SDS011;32289;42.688;23.330;2023-03-26T22:24:48;8.80;;;2.70;;
46561;SDS011;32289;42.688;23.330;2023-03-26T22:28:32;9.57;;;2.75;;
46561;SDS011;32289;42.688;23.330;2023-03-26T22:32:13;5.50;;;2.33;;
46561;SDS011;32289;42.688;23.330;2023-03-26T22:35:54;6.68;;;2.72;;
46561;SDS011;32289;42.688;23.330;2023-03-26T22:39:35;6.55;;;2.83;;
46561;SDS011;32289;42.688;23.330;2023-03-26T22:43:16;7.07;;;2.53;;
46561;SDS011;32289;42.688;23.330;2023-03-26T22:46:57;5.18;;;2.47;;
46561;SDS011;32289;42.688;23.330;2023-03-26T22:50:38;5.47;;;2.20;;
46561;SDS011;32289;42.688;23.330;2023-03-26T22:58:06;8.43;;;2.60;;
46561;SDS011;32289;42.688;23.330;2023-03-26T23:01:47;6.60;;;2.63;;
46561;SDS011;32289;42.688;23.330;2023-03-26T23:05:28;6.97;;;2.75;;
46561;SDS011;32289;42.688;23.330;2023-03-26T23:12:53;6.15;;;2.35;;
46561;SDS011;32289;42.688;23.330;2023-03-26T23:16:34;5.90;;;2.70;;
46561;SDS011;32289;42.688;23.330;2023-03-26T23:20:17;6.22;;;2.47;;
46561;SDS011;32289;42.688;23.330;2023-03-26T23:23:59;3.95;;;2.45;;
46561;SDS011;32289;42.688;23.330;2023-03-26T23:27:40;7.35;;;3.25;;
46561;SDS011;32289;42.688;23.330;2023-03-26T23:31:21;5.63;;;2.42;;
46561;SDS011;32289;42.688;23.330;2023-03-26T23:35:04;4.13;;;2.15;;
46561;SDS011;32289;42.688;23.330;2023-03-26T23:38:46;5.90;;;1.80;;
46561;SDS011;32289;42.688;23.330;2023-03-26T23:42:28;4.78;;;2.22;;
46561;SDS011;32289;42.688;23.330;2023-03-26T23:46:09;5.10;;;1.98;;
46561;SDS011;32289;42.688;23.330;2023-03-26T23:49:49;6.65;;;2.35;;
46561;SDS011;32289;42.688;23.330;2023-03-26T23:53:30;6.03;;;2.75;;
46561;SDS011;32289;42.688;23.330;2023-03-26T23:57:14;4.05;;;2.08;;
